Time;durP1;ratioP1;P1;durP2;ratioP2;P2;SDS_P1;SDS_P2;PMS_P1;PMS_P2;Temp;Humidity;BMP_temperature;BMP_pressure;BME280_temperature;BME280_humidity;BME280_pressure;Samples;Min_cycle;Max_cycle;Signal;HPM_P1;HPM_P2
2022/03/01 00:01:44;;;;;;;18.98;10.82;;;;;;;;;;5035891;28;20048;-72
2022/03/01 00:04:10;;;;;;;21.35;10.40;;;;;;;;;;5053828;28;20071;-71
2022/03/01 00:06:36;;;;;;;20.40;10.60;;;;;;;;;;5035699;28;20403;-71
2022/03/01 00:09:02;;;;;;;22.38;11.52;;;;;;;;;;5035856;28;20080;-72
2022/03/01 00:11:28;;;;;;;19.90;10.77;;;;;;;;;;5035764;28;20052;-71
2022/03/01 00:13:54;;;;;;;24.33;12.60;;;;;;;;;;5053631;28;20052;-72
2022/03/01 00:16:20;;;;;;;21.83;11.80;;;;;;;;;;5053385;28;20059;-71
2022/03/01 00:18:47;;;;;;;22.05;12.15;;;;;;;;;;5053466;28;20045;-72
2022/03/01 00:21:13;;;;;;;23.25;11.35;;;;;;;;;;5053356;28;20055;-71
2022/03/01 00:23:39;;;;;;;25.75;11.48;;;;;;;;;;5053554;28;20134;-72
2022/03/01 00:26:05;;;;;;;22.42;11.98;;;;;;;;;;5035855;28;20045;-71
2022/03/01 00:28:31;;;;;;;33.55;12.57;;;;;;;;;;5053274;28;20078;-71
2022/03/01 00:30:58;;;;;;;26.38;12.75;;;;;;;;;;5035154;28;20128;-71
2022/03/01 00:33:24;;;;;;;23.75;12.27;;;;;;;;;;5035299;28;20064;-71
2022/03/01 00:35:50;;;;;;;28.60;12.52;;;;;;;;;;5052923;28;20132;-71
2022/03/01 00:38:16;;;;;;;23.60;12.18;;;;;;;;;;5053278;28;20465;-71
2022/03/01 00:40:41;;;;;;;23.70;11.75;;;;;;;;;;5035296;28;20118;-71
2022/03/01 00:43:07;;;;;;;26.13;11.98;;;;;;;;;;5035317;28;20072;-72
2022/03/01 00:45:33;;;;;;;23.00;11.98;;;;;;;;;;5053157;28;20048;-72
2022/03/01 00:47:59;;;;;;;25.88;12.52;;;;;;;;;;5035201;28;20459;-72
2022/03/01 00:50:25;;;;;;;23.20;12.13;;;;;;;;;;5053016;28;20083;-72
2022/03/01 00:52:51;;;;;;;23.45;11.98;;;;;;;;;;5053185;28;20068;-72
2022/03/01 00:55:17;;;;;;;28.98;12.95;;;;;;;;;;5053118;28;20392;-71
2022/03/01 00:57:43;;;;;;;23.33;12.77;;;;;;;;;;5035022;28;20049;-72
2022/03/01 01:00:10;;;;;;;27.05;13.15;;;;;;;;;;5034965;28;20415;-72
2022/03/01 01:02:36;;;;;;;23.67;12.45;;;;;;;;;;5034983;28;20045;-72
2022/03/01 01:05:02;;;;;;;24.17;12.50;;;;;;;;;;5053046;28;20048;-71
2022/03/01 01:07:28;;;;;;;25.20;12.90;;;;;;;;;;5053088;28;20053;-72
2022/03/01 01:09:54;;;;;;;25.35;13.30;;;;;;;;;;5053114;28;20045;-71
2022/03/01 01:12:20;;;;;;;25.23;13.00;;;;;;;;;;5053173;28;20489;-73
2022/03/01 01:14:46;;;;;;;22.60;13.05;;;;;;;;;;5052911;28;20044;-71
2022/03/01 01:17:12;;;;;;;23.70;12.55;;;;;;;;;;5053211;28;20124;-71
2022/03/01 01:19:38;;;;;;;25.58;12.48;;;;;;;;;;5052829;28;20045;-71
2022/03/01 01:24:48;;;;;;;25.77;13.40;;;;;;;;;;5052755;28;20044;-72
2022/03/01 01:27:14;;;;;;;27.73;13.82;;;;;;;;;;5053076;28;20051;-72
2022/03/01 01:29:40;;;;;;;28.10;13.93;;;;;;;;;;5056279;28;20536;-72
2022/03/01 01:32:06;;;;;;;24.33;13.02;;;;;;;;;;5056432;28;20151;-72
2022/03/01 01:34:32;;;;;;;27.90;13.80;;;;;;;;;;5038551;28;20127;-72
2022/03/01 01:36:58;;;;;;;30.63;13.73;;;;;;;;;;5038729;28;20195;-73
2022/03/01 01:39:24;;;;;;;26.98;12.60;;;;;;;;;;5056357;28;20049;-72
2022/03/01 01:41:50;;;;;;;26.17;13.50;;;;;;;;;;5056673;28;20425;-72
2022/03/01 01:44:17;;;;;;;32.00;14.30;;;;;;;;;;5038662;28;20068;-72
2022/03/01 01:46:43;;;;;;;30.40;14.18;;;;;;;;;;5056775;28;20063;-72
2022/03/01 01:49:08;;;;;;;26.45;12.98;;;;;;;;;;5056349;28;20041;-71
2022/03/01 01:51:34;;;;;;;28.33;13.88;;;;;;;;;;5056545;28;20056;-71
2022/03/01 01:54:01;;;;;;;27.58;14.30;;;;;;;;;;5038296;28;20442;-71
2022/03/01 01:56:27;;;;;;;26.98;13.60;;;;;;;;;;5056214;28;20103;-72
2022/03/01 01:58:53;;;;;;;29.40;14.90;;;;;;;;;;5038432;28;20487;-72
2022/03/01 02:01:18;;;;;;;29.73;13.90;;;;;;;;;;5055810;28;20048;-71
2022/03/01 02:03:44;;;;;;;26.92;14.25;;;;;;;;;;5055919;28;20057;-71
2022/03/01 02:06:11;;;;;;;24.17;13.02;;;;;;;;;;5056150;28;20103;-72
2022/03/01 02:08:36;;;;;;;28.42;14.60;;;;;;;;;;5056193;28;20041;-72
2022/03/01 02:11:03;;;;;;;29.42;14.55;;;;;;;;;;5055971;28;20056;-72
2022/03/01 02:13:28;;;;;;;29.63;15.27;;;;;;;;;;5038249;28;20060;-72
2022/03/01 02:15:55;;;;;;;32.17;15.18;;;;;;;;;;5055613;28;20053;-72
2022/03/01 02:18:21;;;;;;;29.67;14.93;;;;;;;;;;5056005;28;20045;-72
2022/03/01 02:20:47;;;;;;;32.72;15.77;;;;;;;;;;5055746;28;20045;-71
2022/03/01 02:23:13;;;;;;;30.58;16.10;;;;;;;;;;5055527;28;20593;-71
2022/03/01 02:25:39;;;;;;;33.67;16.15;;;;;;;;;;5055594;28;20049;-72
2022/03/01 02:28:05;;;;;;;27.30;14.90;;;;;;;;;;5055583;28;20500;-72
2022/03/01 02:30:32;;;;;;;35.28;15.38;;;;;;;;;;5021207;28;20049;-72
2022/03/01 02:32:58;;;;;;;27.48;15.27;;;;;;;;;;5055569;28;20091;-72
2022/03/01 02:35:24;;;;;;;29.55;14.63;;;;;;;;;;5055734;28;20056;-72
2022/03/01 02:37:50;;;;;;;30.48;15.00;;;;;;;;;;5055255;28;20183;-72
2022/03/01 02:40:16;;;;;;;28.02;13.82;;;;;;;;;;5054552;28;20077;-72
2022/03/01 02:42:45;;;;;;;29.42;15.15;;;;;;;;;;5055602;28;20045;-72
2022/03/01 02:45:13;;;;;;;29.75;15.32;;;;;;;;;;5038040;28;20060;-72
2022/03/01 02:47:39;;;;;;;28.23;13.75;;;;;;;;;;5057003;28;20492;-72
2022/03/01 02:50:06;;;;;;;30.88;15.18;;;;;;;;;;5055416;28;20041;-72
2022/03/01 02:52:32;;;;;;;31.90;14.73;;;;;;;;;;5055177;28;20049;-71
2022/03/01 02:54:58;;;;;;;30.20;14.88;;;;;;;;;;5055061;28;20069;-73
2022/03/01 02:57:24;;;;;;;31.83;15.27;;;;;;;;;;5037070;28;20056;-71
2022/03/01 02:59:51;;;;;;;28.27;14.80;;;;;;;;;;5054815;28;20044;-71
2022/03/01 03:02:17;;;;;;;28.25;14.70;;;;;;;;;;5055137;28;20036;-71
2022/03/01 03:04:43;;;;;;;29.27;15.27;;;;;;;;;;5054908;28;20045;-72
2022/03/01 03:07:09;;;;;;;28.08;14.60;;;;;;;;;;5037181;28;20048;-71
2022/03/01 03:09:35;;;;;;;28.42;14.65;;;;;;;;;;5036992;28;20056;-71
2022/03/01 03:12:02;;;;;;;25.65;14.02;;;;;;;;;;5037098;28;20515;-71
2022/03/01 03:14:28;;;;;;;28.15;14.80;;;;;;;;;;5036794;28;20484;-71
2022/03/01 03:16:54;;;;;;;28.30;15.25;;;;;;;;;;5054428;28;20045;-71
2022/03/01 03:19:20;;;;;;;29.08;14.70;;;;;;;;;;5054581;28;20045;-72
2022/03/01 03:21:47;;;;;;;28.50;14.82;;;;;;;;;;5054621;28;20419;-71
2022/03/01 03:24:13;;;;;;;34.97;16.08;;;;;;;;;;5054564;28;20040;-71
2022/03/01 03:26:39;;;;;;;32.30;15.23;;;;;;;;;;5036704;28;20128;-71
2022/03/01 03:29:08;;;;;;;30.83;15.00;;;;;;;;;;5054533;28;20077;-71
2022/03/01 03:31:34;;;;;;;34.17;15.27;;;;;;;;;;5054524;28;20055;-71
2022/03/01 03:34:00;;;;;;;26.83;13.82;;;;;;;;;;5054152;28;20164;-71
2022/03/01 03:36:26;;;;;;;30.65;14.55;;;;;;;;;;5054414;28;20498;-72
2022/03/01 03:38:52;;;;;;;32.63;15.45;;;;;;;;;;5036392;28;20045;-72
2022/03/01 03:41:18;;;;;;;28.67;14.65;;;;;;;;;;5053948;28;20087;-71
2022/03/01 03:43:44;;;;;;;32.25;15.40;;;;;;;;;;5054237;28;20076;-71
2022/03/01 03:46:10;;;;;;;27.17;14.13;;;;;;;;;;5054166;28;20562;-71
2022/03/01 03:48:36;;;;;;;35.30;15.27;;;;;;;;;;5054281;28;20044;-72
2022/03/01 03:51:02;;;;;;;28.70;14.82;;;;;;;;;;5053337;28;20124;-71
2022/03/01 03:53:28;;;;;;;29.65;14.70;;;;;;;;;;5035757;28;20119;-71
2022/03/01 03:55:54;;;;;;;31.63;15.60;;;;;;;;;;5053674;28;20491;-72
2022/03/01 03:58:20;;;;;;;31.25;14.95;;;;;;;;;;5053942;28;20090;-71
2022/03/01 04:00:46;;;;;;;29.92;15.27;;;;;;;;;;5053795;28;20048;-71
2022/03/01 04:03:12;;;;;;;27.85;14.82;;;;;;;;;;5019650;28;20041;-71
2022/03/01 04:05:38;;;;;;;33.88;15.88;;;;;;;;;;5053736;28;20041;-71
2022/03/01 04:08:04;;;;;;;31.70;15.98;;;;;;;;;;5053575;28;20045;-71
2022/03/01 04:10:30;;;;;;;29.83;15.25;;;;;;;;;;5053333;28;20400;-71
2022/03/01 04:12:56;;;;;;;30.05;15.10;;;;;;;;;;5035534;28;20055;-71
2022/03/01 04:15:22;;;;;;;32.88;15.80;;;;;;;;;;5053603;28;20080;-72
2022/03/01 04:17:49;;;;;;;30.60;14.70;;;;;;;;;;5035561;28;20095;-72
2022/03/01 04:20:16;;;;;;;29.75;15.05;;;;;;;;;;5053291;28;20451;-71
2022/03/01 04:22:42;;;;;;;31.45;15.32;;;;;;;;;;5053435;28;20052;-71
2022/03/01 04:25:10;;;;;;;35.15;15.55;;;;;;;;;;5053167;28;20060;-71
2022/03/01 04:27:36;;;;;;;29.10;15.48;;;;;;;;;;5053341;28;20381;-72
2022/03/01 04:30:03;;;;;;;32.58;15.50;;;;;;;;;;5035244;28;20602;-71
2022/03/01 04:32:29;;;;;;;27.27;14.13;;;;;;;;;;5053148;28;20041;-71
2022/03/01 04:34:55;;;;;;;32.55;16.23;;;;;;;;;;5053045;28;20060;-71
2022/03/01 04:37:21;;;;;;;28.58;15.18;;;;;;;;;;5053106;28;20116;-71
2022/03/01 04:39:47;;;;;;;31.30;16.27;;;;;;;;;;5052918;28;20083;-71
2022/03/01 04:42:13;;;;;;;31.83;14.82;;;;;;;;;;5019126;28;20056;-72
2022/03/01 04:44:39;;;;;;;32.13;15.52;;;;;;;;;;5019161;28;20041;-70
2022/03/01 04:47:05;;;;;;;29.83;15.27;;;;;;;;;;5018785;28;20044;-72
2022/03/01 04:49:32;;;;;;;29.75;15.05;;;;;;;;;;5052961;28;20037;-72
2022/03/01 04:51:58;;;;;;;33.03;15.35;;;;;;;;;;5052981;28;20621;-72
2022/03/01 04:54:24;;;;;;;33.85;15.90;;;;;;;;;;5052728;28;20076;-72
2022/03/01 04:56:50;;;;;;;28.95;14.77;;;;;;;;;;5052991;28;20055;-72
2022/03/01 04:59:16;;;;;;;28.00;14.55;;;;;;;;;;5053053;28;20040;-72
2022/03/01 05:01:42;;;;;;;31.15;15.60;;;;;;;;;;5053012;28;20084;-72
2022/03/01 05:04:09;;;;;;;33.60;15.77;;;;;;;;;;5052282;28;20077;-72
2022/03/01 05:06:35;;;;;;;37.33;16.63;;;;;;;;;;5052851;28;20057;-72
2022/03/01 05:09:01;;;;;;;33.08;15.32;;;;;;;;;;5037848;28;20453;-72
2022/03/01 05:11:26;;;;;;;37.42;15.85;;;;;;;;;;5048774;28;20052;-72
2022/03/01 05:13:52;;;;;;;33.22;16.33;;;;;;;;;;5054501;28;20044;-72
2022/03/01 05:16:18;;;;;;;37.25;16.23;;;;;;;;;;5072938;28;20403;-72
2022/03/01 05:18:44;;;;;;;38.95;16.58;;;;;;;;;;5072781;28;20045;-72
2022/03/01 05:21:10;;;;;;;31.02;15.93;;;;;;;;;;5071819;28;20041;-71
2022/03/01 05:23:36;;;;;;;31.75;15.30;;;;;;;;;;5072469;28;20450;-72
2022/03/01 05:26:04;;;;;;;37.70;17.35;;;;;;;;;;5071426;28;20044;-72
2022/03/01 05:28:30;;;;;;;36.95;16.50;;;;;;;;;;5072693;28;20499;-72
2022/03/01 05:30:56;;;;;;;32.55;15.68;;;;;;;;;;5072740;28;20066;-72
2022/03/01 05:33:22;;;;;;;33.35;15.65;;;;;;;;;;5072770;28;20123;-72
2022/03/01 05:35:49;;;;;;;33.67;16.38;;;;;;;;;;5073105;28;20066;-72
2022/03/01 05:38:15;;;;;;;34.10;17.35;;;;;;;;;;5054760;28;20538;-72
2022/03/01 05:40:41;;;;;;;28.08;16.33;;;;;;;;;;5054934;28;20136;-72
2022/03/01 05:43:08;;;;;;;31.33;16.08;;;;;;;;;;5054607;28;20102;-72
2022/03/01 05:45:34;;;;;;;33.22;15.63;;;;;;;;;;5072575;28;20060;-72
2022/03/01 05:48:00;;;;;;;30.88;15.93;;;;;;;;;;5054775;28;20381;-73
2022/03/01 05:50:27;;;;;;;36.20;17.80;;;;;;;;;;5072345;28;20462;-72
2022/03/01 05:52:53;;;;;;;31.80;17.05;;;;;;;;;;5054574;28;20044;-72
2022/03/01 05:55:19;;;;;;;37.03;17.13;;;;;;;;;;5072558;28;20068;-72
2022/03/01 05:57:46;;;;;;;38.90;17.77;;;;;;;;;;5072224;28;20484;-72
2022/03/01 06:00:13;;;;;;;32.13;16.98;;;;;;;;;;5054415;28;20048;-73
2022/03/01 06:02:39;;;;;;;35.17;16.85;;;;;;;;;;5074157;28;20045;-73
2022/03/01 06:05:06;;;;;;;37.22;17.60;;;;;;;;;;5071644;28;20080;-73
2022/03/01 06:07:32;;;;;;;39.50;17.33;;;;;;;;;;5072255;28;20044;-73
2022/03/01 06:09:58;;;;;;;38.22;17.73;;;;;;;;;;5072418;28;20544;-73
2022/03/01 06:12:24;;;;;;;51.80;19.23;;;;;;;;;;5072273;28;20442;-73
2022/03/01 06:14:49;;;;;;;57.00;21.02;;;;;;;;;;5072731;28;20041;-72
2022/03/01 06:17:15;;;;;;;42.10;18.10;;;;;;;;;;5075715;28;20075;-71
2022/03/01 06:19:41;;;;;;;37.05;16.17;;;;;;;;;;5075954;28;20055;-71
2022/03/01 06:22:08;;;;;;;39.88;17.30;;;;;;;;;;5076070;28;20067;-72
2022/03/01 06:24:35;;;;;;;44.83;18.17;;;;;;;;;;5075602;28;20082;-72
2022/03/01 06:27:01;;;;;;;44.67;18.38;;;;;;;;;;5075526;28;20531;-72
2022/03/01 06:29:27;;;;;;;53.50;19.80;;;;;;;;;;5057682;28;20040;-72
2022/03/01 06:31:53;;;;;;;44.35;17.92;;;;;;;;;;5075598;28;20052;-73
2022/03/01 06:34:19;;;;;;;67.32;21.90;;;;;;;;;;5075466;28;20057;-73
2022/03/01 06:36:45;;;;;;;72.57;22.35;;;;;;;;;;5075745;28;20048;-72
2022/03/01 06:39:11;;;;;;;34.95;16.58;;;;;;;;;;5075563;28;20045;-73
2022/03/01 06:41:37;;;;;;;72.78;24.60;;;;;;;;;;5075299;28;20043;-73
2022/03/01 06:44:03;;;;;;;47.55;19.33;;;;;;;;;;5075492;28;20083;-72
2022/03/01 06:46:29;;;;;;;33.15;16.65;;;;;;;;;;5075186;28;20040;-73
2022/03/01 06:48:55;;;;;;;36.28;16.83;;;;;;;;;;5074999;28;20098;-73
2022/03/01 06:51:21;;;;;;;46.80;19.40;;;;;;;;;;5051289;28;20037;-72
2022/03/01 06:53:46;;;;;;;49.60;18.80;;;;;;;;;;5021100;28;20045;-72
2022/03/01 06:56:12;;;;;;;45.58;19.70;;;;;;;;;;5034896;28;20045;-72
2022/03/01 06:58:38;;;;;;;69.10;22.33;;;;;;;;;;5017851;28;20049;-72
2022/03/01 07:01:04;;;;;;;39.75;17.90;;;;;;;;;;5034865;28;20516;-72
2022/03/01 07:03:30;;;;;;;61.25;21.83;;;;;;;;;;5034919;28;20041;-72
2022/03/01 07:05:56;;;;;;;39.22;17.55;;;;;;;;;;5017108;28;20096;-72
2022/03/01 07:08:23;;;;;;;42.53;17.73;;;;;;;;;;5034892;28;20108;-73
2022/03/01 07:10:52;;;;;;;41.78;16.70;;;;;;;;;;5034812;28;20132;-72
2022/03/01 07:13:19;;;;;;;53.38;18.17;;;;;;;;;;5017472;28;20113;-72
2022/03/01 07:15:45;;;;;;;31.58;15.15;;;;;;;;;;5035034;28;20038;-71
2022/03/01 07:18:11;;;;;;;56.85;19.95;;;;;;;;;;5016940;28;20053;-72
2022/03/01 07:20:37;;;;;;;40.45;17.00;;;;;;;;;;5034882;28;20129;-72
2022/03/01 07:23:04;;;;;;;53.67;18.15;;;;;;;;;;5033721;28;20061;-73
2022/03/01 07:25:30;;;;;;;52.85;19.55;;;;;;;;;;5034819;28;20045;-73
2022/03/01 07:27:56;;;;;;;37.30;17.33;;;;;;;;;;5034701;28;20381;-72
2022/03/01 07:30:24;;;;;;;45.58;18.98;;;;;;;;;;5034581;28;20048;-73
2022/03/01 07:32:52;;;;;;;57.53;19.97;;;;;;;;;;5034881;28;20045;-72
2022/03/01 07:35:18;;;;;;;37.47;15.65;;;;;;;;;;5034890;28;20315;-73
2022/03/01 07:37:45;;;;;;;36.88;16.25;;;;;;;;;;5034673;28;20041;-73
2022/03/01 07:40:12;;;;;;;32.90;15.25;;;;;;;;;;5034718;28;20041;-72
2022/03/01 07:42:38;;;;;;;37.15;16.52;;;;;;;;;;5034496;28;20072;-72
2022/03/01 07:45:04;;;;;;;31.67;15.35;;;;;;;;;;5016647;28;20361;-73
2022/03/01 07:47:30;;;;;;;28.67;15.65;;;;;;;;;;5017186;28;20132;-73
2022/03/01 07:49:56;;;;;;;34.50;16.55;;;;;;;;;;5016105;28;20124;-73
2022/03/01 07:52:22;;;;;;;39.78;17.77;;;;;;;;;;5034221;28;20124;-73
2022/03/01 07:54:48;;;;;;;31.08;15.50;;;;;;;;;;5016806;28;20048;-73
2022/03/01 07:57:15;;;;;;;26.73;14.50;;;;;;;;;;5033342;28;20058;-73
2022/03/01 07:59:41;;;;;;;28.48;15.27;;;;;;;;;;5034385;28;20128;-73
2022/03/01 08:02:07;;;;;;;29.23;16.17;;;;;;;;;;5034317;28;20057;-72
2022/03/01 08:04:33;;;;;;;35.10;15.60;;;;;;;;;;5034824;28;20045;-72
2022/03/01 08:06:59;;;;;;;42.65;18.95;;;;;;;;;;5034309;28;20053;-73
2022/03/01 08:09:25;;;;;;;28.17;14.60;;;;;;;;;;5034175;28;20124;-74
2022/03/01 08:11:51;;;;;;;25.42;14.88;;;;;;;;;;5016319;28;20389;-72
2022/03/01 08:14:17;;;;;;;37.10;16.20;;;;;;;;;;5034085;28;20048;-72
2022/03/01 08:16:43;;;;;;;44.10;17.45;;;;;;;;;;5034105;28;20103;-72
2022/03/01 08:19:09;;;;;;;27.70;15.38;;;;;;;;;;5034145;28;20053;-73
2022/03/01 08:21:35;;;;;;;28.70;14.93;;;;;;;;;;5016282;28;20042;-72
2022/03/01 08:24:01;;;;;;;29.48;14.55;;;;;;;;;;5033620;28;20048;-73
2022/03/01 08:26:27;;;;;;;25.65;14.50;;;;;;;;;;5033721;28;20056;-73
2022/03/01 08:28:53;;;;;;;26.88;14.80;;;;;;;;;;5033913;28;20045;-71
2022/03/01 08:31:19;;;;;;;26.85;14.75;;;;;;;;;;5032726;28;20048;-73
2022/03/01 08:33:46;;;;;;;36.75;16.08;;;;;;;;;;5015717;28;20049;-72
2022/03/01 08:36:12;;;;;;;28.48;15.07;;;;;;;;;;5033909;28;20201;-72
2022/03/01 08:38:39;;;;;;;29.10;15.45;;;;;;;;;;5032830;28;20500;-72
2022/03/01 08:41:05;;;;;;;34.28;15.50;;;;;;;;;;5033734;28;20045;-72
2022/03/01 08:43:31;;;;;;;30.55;15.32;;;;;;;;;;5033276;28;20136;-73
2022/03/01 08:45:57;;;;;;;43.20;18.65;;;;;;;;;;5033600;28;20125;-73
2022/03/01 08:48:24;;;;;;;75.32;23.25;;;;;;;;;;5015929;28;20059;-73
2022/03/01 08:50:50;;;;;;;44.60;18.23;;;;;;;;;;5032130;28;20053;-72
2022/03/01 08:53:16;;;;;;;56.22;20.98;;;;;;;;;;5033295;28;20136;-72
2022/03/01 08:55:43;;;;;;;50.30;17.90;;;;;;;;;;5033244;28;20080;-73
2022/03/01 08:58:09;;;;;;;29.67;14.35;;;;;;;;;;5033353;28;20083;-73
2022/03/01 09:00:35;;;;;;;27.17;15.43;;;;;;;;;;5033353;28;20049;-73
2022/03/01 09:03:01;;;;;;;34.47;17.02;;;;;;;;;;5033185;28;20455;-73
2022/03/01 09:05:28;;;;;;;32.72;16.25;;;;;;;;;;5033099;28;20060;-73
2022/03/01 09:07:54;;;;;;;24.67;15.23;;;;;;;;;;5033549;28;20041;-73
2022/03/01 09:10:21;;;;;;;30.13;14.70;;;;;;;;;;5015744;28;20052;-73
2022/03/01 09:12:52;;;;;;;28.27;14.95;;;;;;;;;;5015292;28;20519;-72
2022/03/01 09:15:18;;;;;;;28.95;15.25;;;;;;;;;;5033372;28;20073;-72
2022/03/01 09:17:45;;;;;;;26.77;15.52;;;;;;;;;;5016429;28;20531;-72
2022/03/01 09:20:11;;;;;;;32.50;15.63;;;;;;;;;;5034149;28;20046;-73
2022/03/01 09:22:37;;;;;;;30.00;14.93;;;;;;;;;;5033117;28;20072;-72
2022/03/01 09:25:04;;;;;;;26.23;14.80;;;;;;;;;;5033294;28;20059;-73
2022/03/01 09:27:30;;;;;;;30.92;14.43;;;;;;;;;;5033102;28;20049;-72
2022/03/01 09:29:56;;;;;;;23.65;13.48;;;;;;;;;;5032939;28;20048;-72
2022/03/01 09:32:22;;;;;;;25.17;14.55;;;;;;;;;;5033378;28;20114;-73
2022/03/01 09:34:49;;;;;;;36.40;16.63;;;;;;;;;;5014842;28;20497;-73
2022/03/01 09:37:15;;;;;;;25.13;14.55;;;;;;;;;;5032954;28;20046;-73
2022/03/01 09:39:41;;;;;;;28.88;14.13;;;;;;;;;;5032762;28;20407;-73
2022/03/01 09:42:08;;;;;;;44.03;17.27;;;;;;;;;;5015104;28;20037;-73
2022/03/01 09:44:34;;;;;;;27.00;14.63;;;;;;;;;;5032975;28;20049;-73
2022/03/01 09:47:00;;;;;;;28.65;15.07;;;;;;;;;;5033415;28;20045;-73
2022/03/01 09:49:26;;;;;;;24.60;14.23;;;;;;;;;;5034310;28;20042;-72
2022/03/01 09:51:52;;;;;;;25.23;14.02;;;;;;;;;;5019044;28;20053;-72
2022/03/01 09:54:18;;;;;;;23.25;13.85;;;;;;;;;;5039100;28;20040;-73
2022/03/01 09:56:44;;;;;;;22.83;13.73;;;;;;;;;;5027899;28;20051;-73
2022/03/01 09:59:10;;;;;;;24.40;13.93;;;;;;;;;;5022743;28;20088;-72
2022/03/01 10:01:36;;;;;;;22.65;14.13;;;;;;;;;;5036581;28;20041;-73
2022/03/01 10:04:09;;;;;;;34.85;16.20;;;;;;;;;;5036212;28;20563;-72
2022/03/01 10:06:39;;;;;;;20.40;13.27;;;;;;;;;;5036744;28;20492;-73
2022/03/01 10:09:12;;;;;;;38.15;17.90;;;;;;;;;;5036449;28;20358;-73
2022/03/01 10:11:38;;;;;;;30.63;14.20;;;;;;;;;;5018839;28;20056;-72
2022/03/01 10:14:04;;;;;;;23.05;13.50;;;;;;;;;;5036601;28;20045;-73
2022/03/01 10:16:37;;;;;;;34.78;15.57;;;;;;;;;;5002111;28;20405;-74
2022/03/01 10:19:03;;;;;;;40.67;16.33;;;;;;;;;;5036576;28;20049;-73
2022/03/01 10:21:29;;;;;;;37.35;16.40;;;;;;;;;;5018873;28;20052;-71
2022/03/01 10:23:57;;;;;;;23.42;13.40;;;;;;;;;;5036447;28;20115;-71
2022/03/01 10:26:24;;;;;;;22.98;13.45;;;;;;;;;;5018312;28;20084;-72
2022/03/01 10:28:51;;;;;;;24.48;13.27;;;;;;;;;;5036191;28;20041;-71
2022/03/01 10:31:18;;;;;;;23.42;13.52;;;;;;;;;;5036741;28;20133;-71
2022/03/01 10:33:57;;;;;;;23.38;14.07;;;;;;;;;;5035972;28;20064;-71
2022/03/01 10:36:25;;;;;;;26.17;14.38;;;;;;;;;;5035857;28;20053;-71
2022/03/01 10:39:10;;;;;;;34.75;15.23;;;;;;;;;;5046034;28;20070;-71
2022/03/01 10:41:37;;;;;;;39.72;17.52;;;;;;;;;;5052679;28;20042;-72
2022/03/01 10:44:04;;;;;;;23.88;13.15;;;;;;;;;;5045430;28;20046;-73
2022/03/01 10:46:31;;;;;;;23.02;13.63;;;;;;;;;;5050099;28;20043;-73
2022/03/01 10:49:11;;;;;;;25.63;13.73;;;;;;;;;;5038325;28;20150;-73
2022/03/01 10:51:49;;;;;;;20.50;12.57;;;;;;;;;;5055449;28;20117;-74
2022/03/01 10:54:34;;;;;;;20.17;13.13;;;;;;;;;;5055344;28;20048;-74
2022/03/01 10:57:01;;;;;;;37.10;15.15;;;;;;;;;;5055451;28;20127;-75
2022/03/01 10:59:29;;;;;;;22.83;13.48;;;;;;;;;;5037437;28;20056;-73
2022/03/01 11:01:59;;;;;;;21.60;13.90;;;;;;;;;;5054697;28;20045;-74
2022/03/01 11:04:26;;;;;;;22.00;13.52;;;;;;;;;;5055245;28;20299;-73
2022/03/01 11:06:53;;;;;;;28.00;14.68;;;;;;;;;;5054979;28;20049;-74
2022/03/01 11:09:19;;;;;;;30.33;14.82;;;;;;;;;;5055194;28;20084;-74
2022/03/01 11:11:45;;;;;;;29.30;14.45;;;;;;;;;;5055079;28;20049;-75
2022/03/01 11:14:14;;;;;;;26.10;14.57;;;;;;;;;;5055039;28;20055;-75
2022/03/01 11:16:46;;;;;;;22.27;13.55;;;;;;;;;;5054964;28;20052;-75
2022/03/01 11:19:22;;;;;;;19.88;13.60;;;;;;;;;;5037220;28;20136;-75
2022/03/01 11:21:49;;;;;;;21.30;13.50;;;;;;;;;;5054699;28;20045;-73
2022/03/01 11:24:16;;;;;;;22.30;14.70;;;;;;;;;;5036706;28;20557;-74
2022/03/01 11:26:42;;;;;;;42.83;18.20;;;;;;;;;;5020296;28;20041;-75
2022/03/01 11:29:10;;;;;;;42.17;18.52;;;;;;;;;;5054565;28;20049;-74
2022/03/01 11:31:36;;;;;;;18.87;13.77;;;;;;;;;;5054592;28;20047;-74
2022/03/01 11:34:02;;;;;;;23.00;13.55;;;;;;;;;;5054294;28;20053;-74
2022/03/01 11:36:29;;;;;;;19.83;12.98;;;;;;;;;;5054108;28;20507;-74
2022/03/01 11:38:56;;;;;;;23.40;13.63;;;;;;;;;;5036378;28;20056;-74
2022/03/01 11:41:22;;;;;;;21.00;13.38;;;;;;;;;;5054362;28;20117;-74
2022/03/01 11:44:00;;;;;;;62.92;22.67;;;;;;;;;;5054555;28;20045;-73
2022/03/01 11:46:26;;;;;;;21.92;13.25;;;;;;;;;;5054531;28;20053;-74
2022/03/01 11:48:52;;;;;;;19.17;12.70;;;;;;;;;;5054019;28;20095;-74
2022/03/01 11:51:19;;;;;;;27.40;13.82;;;;;;;;;;5036333;28;20053;-74
2022/03/01 11:53:46;;;;;;;22.08;13.50;;;;;;;;;;5054097;28;20049;-74
2022/03/01 11:56:13;;;;;;;20.60;13.30;;;;;;;;;;5054469;28;20045;-75
2022/03/01 11:58:39;;;;;;;26.63;13.88;;;;;;;;;;5036340;28;20045;-75
2022/03/01 12:01:06;;;;;;;22.52;13.07;;;;;;;;;;5053904;28;20131;-74
2022/03/01 12:03:35;;;;;;;42.63;16.83;;;;;;;;;;5053708;28;20480;-74
2022/03/01 12:06:02;;;;;;;17.10;12.27;;;;;;;;;;5053794;28;20374;-73
2022/03/01 12:08:29;;;;;;;19.48;12.88;;;;;;;;;;5054046;28;20049;-74
2022/03/01 12:11:00;;;;;;;24.80;13.75;;;;;;;;;;5019365;28;20080;-73
2022/03/01 12:13:42;;;;;;;21.40;12.57;;;;;;;;;;5035045;28;20057;-73
2022/03/01 12:16:09;;;;;;;20.45;13.20;;;;;;;;;;5053945;28;20391;-73
2022/03/01 12:18:37;;;;;;;19.85;12.38;;;;;;;;;;5035665;28;20041;-74
2022/03/01 12:21:06;;;;;;;20.63;13.45;;;;;;;;;;5053549;28;20083;-74
2022/03/01 12:23:34;;;;;;;21.08;12.98;;;;;;;;;;5053633;28;20076;-74
2022/03/01 12:26:01;;;;;;;22.15;13.60;;;;;;;;;;5053454;28;20480;-74
2022/03/01 12:28:30;;;;;;;20.55;13.60;;;;;;;;;;5053280;28;20045;-73
2022/03/01 12:30:58;;;;;;;23.60;13.40;;;;;;;;;;5053734;28;20122;-74
2022/03/01 12:33:24;;;;;;;19.88;13.07;;;;;;;;;;5053265;28;20864;-73
2022/03/01 12:35:58;;;;;;;31.15;15.55;;;;;;;;;;5053709;28;20041;-74
2022/03/01 12:38:24;;;;;;;23.25;13.75;;;;;;;;;;5054606;28;20056;-74
2022/03/01 12:40:50;;;;;;;24.50;14.23;;;;;;;;;;5053372;28;20047;-74
2022/03/01 12:43:17;;;;;;;20.35;13.23;;;;;;;;;;5053536;28;20083;-74
2022/03/01 12:45:44;;;;;;;40.97;18.35;;;;;;;;;;5035613;28;20527;-74
2022/03/01 12:48:12;;;;;;;28.77;14.77;;;;;;;;;;5053222;28;20049;-74
2022/03/01 12:50:45;;;;;;;20.95;12.90;;;;;;;;;;5053133;28;20072;-74
2022/03/01 12:53:12;;;;;;;18.67;12.77;;;;;;;;;;5053536;28;20045;-73
2022/03/01 12:55:41;;;;;;;19.90;13.50;;;;;;;;;;5052939;28;20068;-73
2022/03/01 12:58:24;;;;;;;20.05;13.35;;;;;;;;;;5053304;28;20049;-73
2022/03/01 13:00:50;;;;;;;20.70;13.32;;;;;;;;;;5053464;28;20429;-73
2022/03/01 13:03:30;;;;;;;32.28;15.00;;;;;;;;;;5053131;28;20045;-73
2022/03/01 13:06:09;;;;;;;23.95;13.57;;;;;;;;;;5053071;28;20144;-74
2022/03/01 13:08:36;;;;;;;24.98;14.15;;;;;;;;;;5053035;28;20515;-73
2022/03/01 13:11:02;;;;;;;21.15;13.07;;;;;;;;;;5053585;28;20045;-73
2022/03/01 13:13:31;;;;;;;22.33;13.30;;;;;;;;;;5035369;28;20049;-72
2022/03/01 13:16:04;;;;;;;19.73;12.18;;;;;;;;;;5053030;28;20088;-72
2022/03/01 13:18:30;;;;;;;20.33;12.98;;;;;;;;;;5052116;28;20424;-72
2022/03/01 13:20:56;;;;;;;22.35;14.00;;;;;;;;;;5050037;28;20048;-72
2022/03/01 13:23:29;;;;;;;27.80;14.43;;;;;;;;;;5052961;28;20049;-72
2022/03/01 13:25:56;;;;;;;33.03;14.82;;;;;;;;;;5040534;28;20124;-74
2022/03/01 13:28:35;;;;;;;25.58;14.23;;;;;;;;;;5037405;28;20101;-73
2022/03/01 13:31:02;;;;;;;21.58;13.15;;;;;;;;;;5036752;28;20484;-73
2022/03/01 13:33:29;;;;;;;31.02;14.85;;;;;;;;;;5019224;28;20053;-73
2022/03/01 13:35:55;;;;;;;23.27;14.93;;;;;;;;;;5037041;28;20049;-73
2022/03/01 13:38:21;;;;;;;22.67;13.18;;;;;;;;;;5026349;28;20516;-73
2022/03/01 13:40:48;;;;;;;42.45;17.33;;;;;;;;;;5039152;28;20096;-73
2022/03/01 13:43:16;;;;;;;23.30;14.10;;;;;;;;;;5038689;28;20562;-73
2022/03/01 13:45:43;;;;;;;41.58;17.13;;;;;;;;;;5056471;28;20044;-73
2022/03/01 13:48:09;;;;;;;28.48;15.25;;;;;;;;;;5038969;28;20099;-73
2022/03/01 13:50:35;;;;;;;22.60;13.65;;;;;;;;;;5056472;28;20049;-73
2022/03/01 13:53:07;;;;;;;22.10;13.25;;;;;;;;;;5038648;28;20443;-73
2022/03/01 13:55:35;;;;;;;22.83;13.65;;;;;;;;;;5056478;28;20074;-74
2022/03/01 13:58:03;;;;;;;21.83;13.60;;;;;;;;;;5056176;28;20485;-73
2022/03/01 14:00:34;;;;;;;24.30;13.85;;;;;;;;;;5038351;28;20049;-74
2022/03/01 14:03:00;;;;;;;31.20;15.15;;;;;;;;;;5056643;28;20094;-73
2022/03/01 14:05:27;;;;;;;21.58;13.68;;;;;;;;;;5056511;28;20119;-74
2022/03/01 14:07:57;;;;;;;25.67;13.52;;;;;;;;;;5056381;28;20377;-73
2022/03/01 14:10:24;;;;;;;20.30;13.50;;;;;;;;;;5055904;28;20134;-73
2022/03/01 14:12:50;;;;;;;24.27;13.25;;;;;;;;;;5055977;28;20053;-73
2022/03/01 14:15:16;;;;;;;26.33;15.02;;;;;;;;;;5038115;28;20128;-73
2022/03/01 14:17:42;;;;;;;35.13;16.92;;;;;;;;;;5055960;28;20056;-73